Dodge City Regional Airport
KDDC : now visible

Airfield :











YOU CAN JOIN US ON...

 
LOGIN :

Register | Disclaimer

   EN    FR    IT 

 









Legend :    VFR   Marginal VFR   IFR   Intensive IFR   Very Intensive IFR
Visi :
Ceiling :
>= 8 km
>= 3000ft
5 to 8 km
1000 to 3000 ft
1500m to 5 km
500 to 1000 ft
800 to 1500m
200 to 500 ft
< 800m
< 200 ft
Symbols :   Thunderstorms  Fog  Heavy snow  Heavy precipitations  Wind > 20 kt






- Airport Elevation : 2594 ft
- IATA code : DDC


KDDC - Dodge City Regional

CURRENT METAR :
  • 241652Z AUTO 02014G19KT 9SM -RA OVC006 10/09 A2986 RMK AO2 PK WND 03028/1604 RAE22B48 SLP107 P0001 T01000089

EXPIRED METARs :
  • 241630Z AUTO 03015KT 10SM OVC005 09/09 A2986 RMK AO2 PK WND 03028/1604 RAE22 P0001 T00940089
  • 241552Z AUTO 02020G29KT 7SM -RA OVC004 10/09 A2983 RMK AO2 PK WND 03029/1517 SLP096 P0001 T01000089
  • 241452Z AUTO 03018G26KT 6SM -RA BR OVC004 09/09 A2986 RMK AO2 PK WND 03027/1442 SLP104 P0004 60022 T00940089 56015

TAF KDDC
Valid from the 24 at 18:00 until the 25 at 18:00 UTC


241720Z 2418/2518 02016G24KT P6SM -SHRA OVC004
FM250100 35014KT P6SM VCSH OVC005
FM250600 34016G26KT P6SM OVC005
FM251500 34022G31KT P6SM OVC010
KZKC FIR / North America



MET'MAP, your aeronautical weather chart ! - Copyright ORBIFLY December 2007 - Disclaimer

ORBIFLY MET'MAP TEAM :

Programming & Development : Alexandra Zaïnal
Original concept : Baudouin d'Aumeries
Technical & hardware support : Manuel Goepfert
Assistance : Marc-Olivier Méhu

Contact : metmap@orbifly.com




SOURCES & CREDITS :

   NOAA       Earth
Advisory